sensor_id;sensor_type;location;lat;lon;timestamp;P1;durP1;ratioP1;P2;durP2;ratioP2
3149;SDS011;32503;47.748;8.960;2022-12-20T00:00:04;41.43;;;20.43;;
3149;SDS011;32503;47.748;8.960;2022-12-20T00:02:33;41.30;;;22.53;;
3149;SDS011;32503;47.748;8.960;2022-12-20T00:05:01;41.17;;;20.00;;
3149;SDS011;32503;47.748;8.960;2022-12-20T00:07:29;33.77;;;19.10;;
3149;SDS011;32503;47.748;8.960;2022-12-20T00:09:56;41.90;;;20.93;;
3149;SDS011;32503;47.748;8.960;2022-12-20T00:12:23;46.70;;;21.17;;
3149;SDS011;32503;47.748;8.960;2022-12-20T00:14:50;35.67;;;18.77;;
3149;SDS011;32503;47.748;8.960;2022-12-20T00:17:17;46.47;;;18.53;;
3149;SDS011;32503;47.748;8.960;2022-12-20T00:19:44;38.23;;;18.17;;
3149;SDS011;32503;47.748;8.960;2022-12-20T00:22:12;50.67;;;21.37;;
3149;SDS011;32503;47.748;8.960;2022-12-20T00:24:39;43.97;;;21.30;;
3149;SDS011;32503;47.748;8.960;2022-12-20T00:27:06;34.60;;;18.00;;
3149;SDS011;32503;47.748;8.960;2022-12-20T00:29:33;40.43;;;20.03;;
3149;SDS011;32503;47.748;8.960;2022-12-20T00:32:00;38.33;;;18.57;;
3149;SDS011;32503;47.748;8.960;2022-12-20T00:34:27;45.97;;;20.10;;
3149;SDS011;32503;47.748;8.960;2022-12-20T00:36:54;43.70;;;20.53;;
3149;SDS011;32503;47.748;8.960;2022-12-20T00:39:23;36.63;;;19.20;;
3149;SDS011;32503;47.748;8.960;2022-12-20T00:41:50;44.40;;;21.40;;
3149;SDS011;32503;47.748;8.960;2022-12-20T00:44:17;48.33;;;20.50;;
3149;SDS011;32503;47.748;8.960;2022-12-20T00:46:44;37.80;;;17.60;;
3149;SDS011;32503;47.748;8.960;2022-12-20T00:49:11;31.77;;;17.80;;
3149;SDS011;32503;47.748;8.960;2022-12-20T00:51:38;43.73;;;17.87;;
3149;SDS011;32503;47.748;8.960;2022-12-20T00:54:05;35.97;;;17.00;;
3149;SDS011;32503;47.748;8.960;2022-12-20T00:56:33;34.93;;;18.17;;
3149;SDS011;32503;47.748;8.960;2022-12-20T00:59:00;44.10;;;18.50;;
3149;SDS011;32503;47.748;8.960;2022-12-20T01:01:28;36.17;;;18.00;;
3149;SDS011;32503;47.748;8.960;2022-12-20T01:03:58;36.70;;;16.87;;
3149;SDS011;32503;47.748;8.960;2022-12-20T01:06:27;34.30;;;16.30;;
3149;SDS011;32503;47.748;8.960;2022-12-20T01:08:55;41.40;;;18.20;;
3149;SDS011;32503;47.748;8.960;2022-12-20T01:11:24;41.47;;;18.10;;
3149;SDS011;32503;47.748;8.960;2022-12-20T01:13:54;36.53;;;18.03;;
3149;SDS011;32503;47.748;8.960;2022-12-20T01:16:24;37.73;;;17.63;;
3149;SDS011;32503;47.748;8.960;2022-12-20T01:18:54;38.23;;;18.83;;
3149;SDS011;32503;47.748;8.960;2022-12-20T01:21:22;35.80;;;18.17;;
3149;SDS011;32503;47.748;8.960;2022-12-20T01:23:51;37.07;;;17.93;;
3149;SDS011;32503;47.748;8.960;2022-12-20T01:26:20;38.57;;;17.57;;
3149;SDS011;32503;47.748;8.960;2022-12-20T01:28:51;40.70;;;18.27;;
3149;SDS011;32503;47.748;8.960;2022-12-20T01:31:21;38.00;;;18.90;;
3149;SDS011;32503;47.748;8.960;2022-12-20T01:33:49;35.27;;;16.73;;
3149;SDS011;32503;47.748;8.960;2022-12-20T01:36:18;41.60;;;17.50;;
3149;SDS011;32503;47.748;8.960;2022-12-20T01:38:49;37.87;;;19.13;;
3149;SDS011;32503;47.748;8.960;2022-12-20T01:41:16;43.30;;;17.97;;
3149;SDS011;32503;47.748;8.960;2022-12-20T01:43:47;37.37;;;16.20;;
3149;SDS011;32503;47.748;8.960;2022-12-20T01:46:18;48.67;;;21.20;;
3149;SDS011;32503;47.748;8.960;2022-12-20T01:48:50;37.93;;;18.33;;
3149;SDS011;32503;47.748;8.960;2022-12-20T01:51:21;30.33;;;18.10;;
3149;SDS011;32503;47.748;8.960;2022-12-20T01:53:53;44.67;;;18.50;;
3149;SDS011;32503;47.748;8.960;2022-12-20T01:56:26;56.80;;;19.70;;
3149;SDS011;32503;47.748;8.960;2022-12-20T01:58:54;38.80;;;17.30;;
3149;SDS011;32503;47.748;8.960;2022-12-20T02:01:24;45.90;;;19.90;;
3149;SDS011;32503;47.748;8.960;2022-12-20T02:03:51;46.43;;;20.33;;
3149;SDS011;32503;47.748;8.960;2022-12-20T02:06:21;38.10;;;19.30;;
3149;SDS011;32503;47.748;8.960;2022-12-20T02:08:50;36.90;;;19.07;;
3149;SDS011;32503;47.748;8.960;2022-12-20T02:14:35;36.73;;;17.07;;
3149;SDS011;32503;47.748;8.960;2022-12-20T02:17:20;35.57;;;18.47;;
3149;SDS011;32503;47.748;8.960;2022-12-20T02:20:09;46.23;;;20.73;;
3149;SDS011;32503;47.748;8.960;2022-12-20T02:23:08;46.07;;;19.40;;
3149;SDS011;32503;47.748;8.960;2022-12-20T02:25:55;44.77;;;18.57;;
3149;SDS011;32503;47.748;8.960;2022-12-20T02:28:46;37.90;;;17.47;;
3149;SDS011;32503;47.748;8.960;2022-12-20T02:31:42;36.47;;;17.27;;
3149;SDS011;32503;47.748;8.960;2022-12-20T02:34:14;41.90;;;19.73;;
3149;SDS011;32503;47.748;8.960;2022-12-20T02:36:42;33.87;;;16.47;;
3149;SDS011;32503;47.748;8.960;2022-12-20T02:39:10;39.50;;;18.70;;
3149;SDS011;32503;47.748;8.960;2022-12-20T02:41:40;37.00;;;17.83;;
3149;SDS011;32503;47.748;8.960;2022-12-20T02:44:13;32.63;;;18.27;;
3149;SDS011;32503;47.748;8.960;2022-12-20T02:47:01;41.27;;;19.30;;
3149;SDS011;32503;47.748;8.960;2022-12-20T02:49:35;41.63;;;20.63;;
3149;SDS011;32503;47.748;8.960;2022-12-20T02:52:05;36.57;;;18.00;;
3149;SDS011;32503;47.748;8.960;2022-12-20T02:54:35;39.23;;;17.93;;
3149;SDS011;32503;47.748;8.960;2022-12-20T02:57:04;48.43;;;21.37;;
3149;SDS011;32503;47.748;8.960;2022-12-20T02:59:39;36.00;;;18.07;;
3149;SDS011;32503;47.748;8.960;2022-12-20T03:02:15;46.77;;;18.27;;
3149;SDS011;32503;47.748;8.960;2022-12-20T03:04:44;48.93;;;18.60;;
3149;SDS011;32503;47.748;8.960;2022-12-20T03:07:13;40.10;;;18.27;;
3149;SDS011;32503;47.748;8.960;2022-12-20T03:09:44;45.63;;;19.43;;
3149;SDS011;32503;47.748;8.960;2022-12-20T03:12:12;41.07;;;17.87;;
3149;SDS011;32503;47.748;8.960;2022-12-20T03:14:41;43.53;;;19.70;;
3149;SDS011;32503;47.748;8.960;2022-12-20T03:17:08;46.50;;;19.27;;
3149;SDS011;32503;47.748;8.960;2022-12-20T03:19:37;41.97;;;18.40;;
3149;SDS011;32503;47.748;8.960;2022-12-20T03:22:04;38.93;;;18.07;;
3149;SDS011;32503;47.748;8.960;2022-12-20T03:24:32;41.87;;;19.37;;
3149;SDS011;32503;47.748;8.960;2022-12-20T03:26:59;37.10;;;19.60;;
3149;SDS011;32503;47.748;8.960;2022-12-20T03:29:26;42.13;;;19.80;;
3149;SDS011;32503;47.748;8.960;2022-12-20T03:31:53;44.80;;;19.40;;
3149;SDS011;32503;47.748;8.960;2022-12-20T03:34:20;40.67;;;17.53;;
3149;SDS011;32503;47.748;8.960;2022-12-20T03:36:48;44.23;;;18.93;;
3149;SDS011;32503;47.748;8.960;2022-12-20T03:39:15;31.07;;;16.70;;
3149;SDS011;32503;47.748;8.960;2022-12-20T03:41:42;34.27;;;17.97;;
3149;SDS011;32503;47.748;8.960;2022-12-20T03:44:10;33.63;;;17.73;;
3149;SDS011;32503;47.748;8.960;2022-12-20T03:46:37;38.30;;;18.70;;
3149;SDS011;32503;47.748;8.960;2022-12-20T03:49:04;41.60;;;17.57;;
3149;SDS011;32503;47.748;8.960;2022-12-20T03:51:31;37.10;;;17.20;;
3149;SDS011;32503;47.748;8.960;2022-12-20T03:53:59;44.13;;;18.77;;
3149;SDS011;32503;47.748;8.960;2022-12-20T03:56:26;38.53;;;17.20;;
3149;SDS011;32503;47.748;8.960;2022-12-20T03:58:53;37.83;;;17.10;;
3149;SDS011;32503;47.748;8.960;2022-12-20T04:01:21;31.77;;;17.00;;
3149;SDS011;32503;47.748;8.960;2022-12-20T04:03:51;31.87;;;17.07;;
3149;SDS011;32503;47.748;8.960;2022-12-20T04:06:19;44.20;;;20.03;;
3149;SDS011;32503;47.748;8.960;2022-12-20T04:08:47;35.03;;;17.03;;
3149;SDS011;32503;47.748;8.960;2022-12-20T04:11:16;32.20;;;16.53;;
3149;SDS011;32503;47.748;8.960;2022-12-20T04:13:43;35.00;;;17.63;;
3149;SDS011;32503;47.748;8.960;2022-12-20T04:16:11;34.97;;;17.10;;
3149;SDS011;32503;47.748;8.960;2022-12-20T04:18:40;40.50;;;18.30;;
3149;SDS011;32503;47.748;8.960;2022-12-20T04:21:07;34.00;;;16.87;;
3149;SDS011;32503;47.748;8.960;2022-12-20T04:23:35;31.50;;;16.37;;
3149;SDS011;32503;47.748;8.960;2022-12-20T04:26:05;34.53;;;15.80;;
3149;SDS011;32503;47.748;8.960;2022-12-20T04:28:35;31.90;;;16.53;;
3149;SDS011;32503;47.748;8.960;2022-12-20T04:31:02;43.17;;;17.07;;
3149;SDS011;32503;47.748;8.960;2022-12-20T04:33:29;45.33;;;18.37;;
3149;SDS011;32503;47.748;8.960;2022-12-20T04:35:56;34.60;;;17.23;;
3149;SDS011;32503;47.748;8.960;2022-12-20T04:38:24;34.53;;;16.07;;
3149;SDS011;32503;47.748;8.960;2022-12-20T04:40:52;35.83;;;17.93;;
3149;SDS011;32503;47.748;8.960;2022-12-20T04:43:20;39.90;;;16.77;;
3149;SDS011;32503;47.748;8.960;2022-12-20T04:45:51;35.73;;;16.50;;
3149;SDS011;32503;47.748;8.960;2022-12-20T04:48:20;34.40;;;16.10;;
3149;SDS011;32503;47.748;8.960;2022-12-20T04:50:51;36.17;;;17.57;;
3149;SDS011;32503;47.748;8.960;2022-12-20T04:53:19;29.23;;;15.30;;
3149;SDS011;32503;47.748;8.960;2022-12-20T04:56:04;39.23;;;16.27;;
3149;SDS011;32503;47.748;8.960;2022-12-20T04:58:32;38.37;;;16.57;;
3149;SDS011;32503;47.748;8.960;2022-12-20T05:01:01;34.93;;;17.10;;
3149;SDS011;32503;47.748;8.960;2022-12-20T05:03:28;37.53;;;17.13;;
3149;SDS011;32503;47.748;8.960;2022-12-20T05:05:55;37.70;;;16.67;;
3149;SDS011;32503;47.748;8.960;2022-12-20T05:08:22;32.30;;;16.87;;
3149;SDS011;32503;47.748;8.960;2022-12-20T05:10:49;29.97;;;16.27;;
3149;SDS011;32503;47.748;8.960;2022-12-20T05:13:17;35.30;;;18.03;;
3149;SDS011;32503;47.748;8.960;2022-12-20T05:15:44;31.13;;;15.77;;
3149;SDS011;32503;47.748;8.960;2022-12-20T05:18:16;35.63;;;18.10;;
3149;SDS011;32503;47.748;8.960;2022-12-20T05:20:43;37.10;;;16.80;;
3149;SDS011;32503;47.748;8.960;2022-12-20T05:23:11;33.47;;;17.30;;
3149;SDS011;32503;47.748;8.960;2022-12-20T05:25:56;42.50;;;19.47;;
3149;SDS011;32503;47.748;8.960;2022-12-20T05:28:40;38.60;;;16.90;;
3149;SDS011;32503;47.748;8.960;2022-12-20T05:31:07;34.23;;;17.03;;
3149;SDS011;32503;47.748;8.960;2022-12-20T05:33:36;48.33;;;18.47;;
3149;SDS011;32503;47.748;8.960;2022-12-20T05:36:03;40.03;;;17.63;;
3149;SDS011;32503;47.748;8.960;2022-12-20T05:38:31;33.47;;;17.17;;
3149;SDS011;32503;47.748;8.960;2022-12-20T05:40:58;50.47;;;21.97;;
3149;SDS011;32503;47.748;8.960;2022-12-20T05:43:25;45.77;;;24.03;;
3149;SDS011;32503;47.748;8.960;2022-12-20T05:45:52;38.17;;;19.63;;
3149;SDS011;32503;47.748;8.960;2022-12-20T05:48:19;32.63;;;18.80;;
3149;SDS011;32503;47.748;8.960;2022-12-20T05:50:48;35.23;;;19.70;;
3149;SDS011;32503;47.748;8.960;2022-12-20T05:53:15;37.80;;;21.47;;
3149;SDS011;32503;47.748;8.960;2022-12-20T05:55:43;38.27;;;18.57;;
3149;SDS011;32503;47.748;8.960;2022-12-20T05:58:12;37.53;;;18.13;;
3149;SDS011;32503;47.748;8.960;2022-12-20T06:00:40;39.87;;;17.20;;
3149;SDS011;32503;47.748;8.960;2022-12-20T06:03:08;36.00;;;15.90;;
3149;SDS011;32503;47.748;8.960;2022-12-20T06:05:37;33.97;;;15.40;;
3149;SDS011;32503;47.748;8.960;2022-12-20T06:08:06;32.07;;;17.07;;
3149;SDS011;32503;47.748;8.960;2022-12-20T06:10:34;42.60;;;17.97;;
3149;SDS011;32503;47.748;8.960;2022-12-20T06:13:01;32.60;;;16.53;;
3149;SDS011;32503;47.748;8.960;2022-12-20T06:15:29;29.63;;;15.00;;
3149;SDS011;32503;47.748;8.960;2022-12-20T06:17:57;33.40;;;16.47;;
3149;SDS011;32503;47.748;8.960;2022-12-20T06:20:24;36.90;;;17.30;;
3149;SDS011;32503;47.748;8.960;2022-12-20T06:22:51;34.50;;;19.23;;
3149;SDS011;32503;47.748;8.960;2022-12-20T06:25:19;39.83;;;17.57;;
3149;SDS011;32503;47.748;8.960;2022-12-20T06:27:46;36.63;;;18.13;;
3149;SDS011;32503;47.748;8.960;2022-12-20T06:30:14;34.87;;;16.70;;
3149;SDS011;32503;47.748;8.960;2022-12-20T06:32:42;29.73;;;16.60;;
3149;SDS011;32503;47.748;8.960;2022-12-20T06:35:09;33.37;;;15.63;;
3149;SDS011;32503;47.748;8.960;2022-12-20T06:37:36;33.50;;;16.57;;
3149;SDS011;32503;47.748;8.960;2022-12-20T06:40:05;28.13;;;15.60;;
3149;SDS011;32503;47.748;8.960;2022-12-20T06:42:35;28.93;;;16.23;;
3149;SDS011;32503;47.748;8.960;2022-12-20T06:45:02;31.83;;;16.13;;
3149;SDS011;32503;47.748;8.960;2022-12-20T06:47:30;35.83;;;16.57;;
3149;SDS011;32503;47.748;8.960;2022-12-20T06:49:57;41.77;;;16.87;;
3149;SDS011;32503;47.748;8.960;2022-12-20T06:52:24;35.27;;;15.77;;
3149;SDS011;32503;47.748;8.960;2022-12-20T06:54:51;35.90;;;17.03;;
3149;SDS011;32503;47.748;8.960;2022-12-20T06:57:18;32.23;;;15.50;;
3149;SDS011;32503;47.748;8.960;2022-12-20T06:59:47;34.13;;;18.00;;
3149;SDS011;32503;47.748;8.960;2022-12-20T07:02:14;33.87;;;16.40;;
3149;SDS011;32503;47.748;8.960;2022-12-20T07:04:41;35.13;;;17.17;;
3149;SDS011;32503;47.748;8.960;2022-12-20T07:07:10;30.03;;;14.93;;
3149;SDS011;32503;47.748;8.960;2022-12-20T07:09:38;26.57;;;15.20;;
3149;SDS011;32503;47.748;8.960;2022-12-20T07:12:06;33.77;;;15.40;;
3149;SDS011;32503;47.748;8.960;2022-12-20T07:14:34;30.33;;;15.63;;
3149;SDS011;32503;47.748;8.960;2022-12-20T07:17:02;38.67;;;17.80;;
3149;SDS011;32503;47.748;8.960;2022-12-20T07:19:29;34.10;;;17.10;;
3149;SDS011;32503;47.748;8.960;2022-12-20T07:21:57;27.73;;;15.77;;
3149;SDS011;32503;47.748;8.960;2022-12-20T07:24:24;45.00;;;17.23;;
3149;SDS011;32503;47.748;8.960;2022-12-20T07:26:51;30.50;;;16.10;;
3149;SDS011;32503;47.748;8.960;2022-12-20T07:29:18;38.03;;;17.23;;
3149;SDS011;32503;47.748;8.960;2022-12-20T07:31:45;36.33;;;16.33;;
3149;SDS011;32503;47.748;8.960;2022-12-20T07:34:13;42.63;;;18.77;;
3149;SDS011;32503;47.748;8.960;2022-12-20T07:36:40;38.97;;;17.90;;
3149;SDS011;32503;47.748;8.960;2022-12-20T07:39:07;32.80;;;17.83;;
3149;SDS011;32503;47.748;8.960;2022-12-20T07:41:34;65.00;;;23.00;;
3149;SDS011;32503;47.748;8.960;2022-12-20T07:44:01;57.17;;;27.67;;
3149;SDS011;32503;47.748;8.960;2022-12-20T07:46:29;53.10;;;23.97;;
3149;SDS011;32503;47.748;8.960;2022-12-20T07:48:56;46.07;;;20.30;;
3149;SDS011;32503;47.748;8.960;2022-12-20T07:51:25;47.60;;;22.27;;
3149;SDS011;32503;47.748;8.960;2022-12-20T07:53:58;45.30;;;19.93;;
3149;SDS011;32503;47.748;8.960;2022-12-20T07:56:29;45.17;;;22.33;;
3149;SDS011;32503;47.748;8.960;2022-12-20T07:58:58;51.10;;;22.00;;
3149;SDS011;32503;47.748;8.960;2022-12-20T08:01:26;40.70;;;22.37;;
3149;SDS011;32503;47.748;8.960;2022-12-20T08:03:55;41.10;;;19.73;;
3149;SDS011;32503;47.748;8.960;2022-12-20T08:06:30;39.77;;;19.40;;
3149;SDS011;32503;47.748;8.960;2022-12-20T08:08:59;38.13;;;17.97;;
3149;SDS011;32503;47.748;8.960;2022-12-20T08:11:30;35.00;;;18.17;;
3149;SDS011;32503;47.748;8.960;2022-12-20T08:13:59;32.63;;;17.80;;
3149;SDS011;32503;47.748;8.960;2022-12-20T08:16:27;34.03;;;19.20;;
3149;SDS011;32503;47.748;8.960;2022-12-20T08:18:55;35.10;;;19.17;;
3149;SDS011;32503;47.748;8.960;2022-12-20T08:21:22;36.57;;;18.37;;
3149;SDS011;32503;47.748;8.960;2022-12-20T08:23:50;41.20;;;20.67;;
3149;SDS011;32503;47.748;8.960;2022-12-20T08:26:18;39.33;;;20.03;;
3149;SDS011;32503;47.748;8.960;2022-12-20T08:28:45;36.93;;;18.53;;
3149;SDS011;32503;47.748;8.960;2022-12-20T08:31:12;41.77;;;20.20;;
3149;SDS011;32503;47.748;8.960;2022-12-20T08:33:39;33.07;;;17.10;;
3149;SDS011;32503;47.748;8.960;2022-12-20T08:36:08;34.30;;;19.50;;
3149;SDS011;32503;47.748;8.960;2022-12-20T08:38:37;38.07;;;20.93;;
3149;SDS011;32503;47.748;8.960;2022-12-20T08:41:07;40.97;;;17.90;;
3149;SDS011;32503;47.748;8.960;2022-12-20T08:43:37;31.20;;;18.40;;
3149;SDS011;32503;47.748;8.960;2022-12-20T08:46:05;36.57;;;18.63;;
3149;SDS011;32503;47.748;8.960;2022-12-20T08:48:34;33.80;;;17.60;;
3149;SDS011;32503;47.748;8.960;2022-12-20T08:51:02;37.10;;;18.60;;
3149;SDS011;32503;47.748;8.960;2022-12-20T08:53:32;57.77;;;28.33;;
3149;SDS011;32503;47.748;8.960;2022-12-20T08:56:03;68.37;;;29.20;;
3149;SDS011;32503;47.748;8.960;2022-12-20T08:58:34;67.33;;;24.67;;
3149;SDS011;32503;47.748;8.960;2022-12-20T09:01:02;38.37;;;20.87;;
3149;SDS011;32503;47.748;8.960;2022-12-20T09:03:32;41.43;;;20.60;;
3149;SDS011;32503;47.748;8.960;2022-12-20T09:06:03;47.37;;;22.20;;
3149;SDS011;32503;47.748;8.960;2022-12-20T09:08:32;47.17;;;22.50;;
3149;SDS011;32503;47.748;8.960;2022-12-20T09:11:02;47.80;;;23.27;;
3149;SDS011;32503;47.748;8.960;2022-12-20T09:13:32;46.43;;;22.67;;
3149;SDS011;32503;47.748;8.960;2022-12-20T09:16:00;52.23;;;23.37;;
3149;SDS011;32503;47.748;8.960;2022-12-20T09:18:28;43.53;;;20.80;;
3149;SDS011;32503;47.748;8.960;2022-12-20T09:20:57;49.37;;;22.73;;
3149;SDS011;32503;47.748;8.960;2022-12-20T09:23:25;39.73;;;21.60;;
3149;SDS011;32503;47.748;8.960;2022-12-20T09:25:52;47.67;;;24.00;;
3149;SDS011;32503;47.748;8.960;2022-12-20T09:28:19;51.83;;;24.00;;
3149;SDS011;32503;47.748;8.960;2022-12-20T09:30:48;46.60;;;22.70;;
3149;SDS011;32503;47.748;8.960;2022-12-20T09:33:15;46.93;;;21.70;;
3149;SDS011;32503;47.748;8.960;2022-12-20T09:35:43;45.10;;;22.47;;
3149;SDS011;32503;47.748;8.960;2022-12-20T09:38:11;45.03;;;22.40;;
3149;SDS011;32503;47.748;8.960;2022-12-20T09:40:39;41.73;;;22.30;;
3149;SDS011;32503;47.748;8.960;2022-12-20T09:43:12;34.60;;;19.57;;
3149;SDS011;32503;47.748;8.960;2022-12-20T09:45:41;44.87;;;20.30;;
3149;SDS011;32503;47.748;8.960;2022-12-20T09:48:15;35.60;;;19.20;;
3149;SDS011;32503;47.748;8.960;2022-12-20T09:50:46;35.50;;;17.60;;
3149;SDS011;32503;47.748;8.960;2022-12-20T09:53:27;34.07;;;18.87;;
3149;SDS011;32503;47.748;8.960;2022-12-20T09:56:09;42.10;;;20.87;;
3149;SDS011;32503;47.748;8.960;2022-12-20T09:58:51;34.43;;;20.30;;
3149;SDS011;32503;47.748;8.960;2022-12-20T10:01:28;43.83;;;20.30;;
3149;SDS011;32503;47.748;8.960;2022-12-20T10:04:00;35.10;;;19.07;;
3149;SDS011;32503;47.748;8.960;2022-12-20T10:06:34;37.97;;;20.30;;
3149;SDS011;32503;47.748;8.960;2022-12-20T10:09:18;36.73;;;21.10;;
3149;SDS011;32503;47.748;8.960;2022-12-20T10:12:08;37.83;;;19.17;;
3149;SDS011;32503;47.748;8.960;2022-12-20T10:15:00;36.70;;;20.40;;
3149;SDS011;32503;47.748;8.960;2022-12-20T10:17:45;33.80;;;19.00;;
3149;SDS011;32503;47.748;8.960;2022-12-20T10:20:33;34.47;;;17.87;;
3149;SDS011;32503;47.748;8.960;2022-12-20T10:23:13;33.23;;;17.97;;
3149;SDS011;32503;47.748;8.960;2022-12-20T10:25:50;37.50;;;19.20;;
3149;SDS011;32503;47.748;8.960;2022-12-20T10:28:19;35.23;;;18.17;;
3149;SDS011;32503;47.748;8.960;2022-12-20T10:30:53;36.63;;;16.53;;
3149;SDS011;32503;47.748;8.960;2022-12-20T10:33:27;31.50;;;17.03;;
3149;SDS011;32503;47.748;8.960;2022-12-20T10:36:05;36.47;;;17.30;;
3149;SDS011;32503;47.748;8.960;2022-12-20T10:38:45;31.53;;;18.30;;
3149;SDS011;32503;47.748;8.960;2022-12-20T10:41:15;35.10;;;19.53;;
3149;SDS011;32503;47.748;8.960;2022-12-20T10:43:45;41.37;;;19.77;;
3149;SDS011;32503;47.748;8.960;2022-12-20T10:46:16;32.43;;;18.50;;
3149;SDS011;32503;47.748;8.960;2022-12-20T10:48:45;38.43;;;18.37;;
3149;SDS011;32503;47.748;8.960;2022-12-20T10:51:17;37.60;;;18.33;;
3149;SDS011;32503;47.748;8.960;2022-12-20T10:53:54;37.00;;;19.00;;
3149;SDS011;32503;47.748;8.960;2022-12-20T10:56:24;50.43;;;19.13;;
3149;SDS011;32503;47.748;8.960;2022-12-20T10:58:54;36.70;;;18.20;;
3149;SDS011;32503;47.748;8.960;2022-12-20T11:01:25;35.10;;;18.03;;
3149;SDS011;32503;47.748;8.960;2022-12-20T11:03:57;29.27;;;18.23;;
3149;SDS011;32503;47.748;8.960;2022-12-20T11:06:38;33.70;;;19.03;;
3149;SDS011;32503;47.748;8.960;2022-12-20T11:09:20;39.20;;;19.40;;
3149;SDS011;32503;47.748;8.960;2022-12-20T11:11:56;40.00;;;20.23;;
3149;SDS011;32503;47.748;8.960;2022-12-20T11:14:29;32.50;;;18.53;;
3149;SDS011;32503;47.748;8.960;2022-12-20T11:16:59;38.40;;;21.33;;
3149;SDS011;32503;47.748;8.960;2022-12-20T11:19:43;41.80;;;21.77;;
3149;SDS011;32503;47.748;8.960;2022-12-20T11:22:39;36.50;;;19.83;;
3149;SDS011;32503;47.748;8.960;2022-12-20T11:25:19;42.67;;;20.67;;
3149;SDS011;32503;47.748;8.960;2022-12-20T11:28:07;33.50;;;19.00;;
3149;SDS011;32503;47.748;8.960;2022-12-20T11:30:49;38.53;;;20.67;;
3149;SDS011;32503;47.748;8.960;2022-12-20T11:33:36;30.70;;;17.93;;
3149;SDS011;32503;47.748;8.960;2022-12-20T11:36:25;32.93;;;16.80;;
3149;SDS011;32503;47.748;8.960;2022-12-20T11:39:05;34.07;;;16.13;;
3149;SDS011;32503;47.748;8.960;2022-12-20T11:41:41;31.83;;;16.33;;
3149;SDS011;32503;47.748;8.960;2022-12-20T11:44:17;35.70;;;16.13;;
3149;SDS011;32503;47.748;8.960;2022-12-20T11:46:56;27.90;;;16.30;;
3149;SDS011;32503;47.748;8.960;2022-12-20T11:52:44;26.37;;;15.37;;
3149;SDS011;32503;47.748;8.960;2022-12-20T11:55:19;28.77;;;16.30;;
3149;SDS011;32503;47.748;8.960;2022-12-20T11:57:56;31.37;;;18.00;;
3149;SDS011;32503;47.748;8.960;2022-12-20T12:00:28;32.13;;;16.63;;
3149;SDS011;32503;47.748;8.960;2022-12-20T12:03:00;32.40;;;17.73;;
3149;SDS011;32503;47.748;8.960;2022-12-20T12:05:38;35.60;;;17.47;;
3149;SDS011;32503;47.748;8.960;2022-12-20T12:08:10;35.17;;;17.63;;
3149;SDS011;32503;47.748;8.960;2022-12-20T12:10:48;31.53;;;17.33;;
3149;SDS011;32503;47.748;8.960;2022-12-20T12:13:22;28.17;;;19.63;;
3149;SDS011;32503;47.748;8.960;2022-12-20T12:15:53;39.30;;;17.97;;
3149;SDS011;32503;47.748;8.960;2022-12-20T12:18:27;34.23;;;20.00;;
3149;SDS011;32503;47.748;8.960;2022-12-20T12:20:58;39.23;;;20.40;;
3149;SDS011;32503;47.748;8.960;2022-12-20T12:23:35;36.00;;;18.83;;
3149;SDS011;32503;47.748;8.960;2022-12-20T12:26:14;35.87;;;17.13;;
3149;SDS011;32503;47.748;8.960;2022-12-20T12:28:47;37.30;;;17.87;;
3149;SDS011;32503;47.748;8.960;2022-12-20T12:31:21;32.10;;;17.90;;
3149;SDS011;32503;47.748;8.960;2022-12-20T12:33:59;37.00;;;19.37;;
3149;SDS011;32503;47.748;8.960;2022-12-20T12:36:48;34.33;;;20.57;;
3149;SDS011;32503;47.748;8.960;2022-12-20T12:43:06;30.80;;;18.07;;
3149;SDS011;32503;47.748;8.960;2022-12-20T12:46:14;38.00;;;17.90;;
3149;SDS011;32503;47.748;8.960;2022-12-20T12:48:47;38.27;;;20.80;;
3149;SDS011;32503;47.748;8.960;2022-12-20T12:51:24;32.57;;;18.33;;
3149;SDS011;32503;47.748;8.960;2022-12-20T12:54:11;34.47;;;18.77;;
3149;SDS011;32503;47.748;8.960;2022-12-20T12:56:46;37.37;;;19.73;;
3149;SDS011;32503;47.748;8.960;2022-12-20T13:02:24;36.97;;;19.93;;
3149;SDS011;32503;47.748;8.960;2022-12-20T13:04:59;31.60;;;19.20;;
3149;SDS011;32503;47.748;8.960;2022-12-20T13:07:55;33.90;;;18.37;;
3149;SDS011;32503;47.748;8.960;2022-12-20T13:13:37;32.23;;;18.13;;
3149;SDS011;32503;47.748;8.960;2022-12-20T13:18:59;28.17;;;16.73;;
3149;SDS011;32503;47.748;8.960;2022-12-20T13:21:38;30.37;;;18.93;;
3149;SDS011;32503;47.748;8.960;2022-12-20T13:27:28;27.23;;;16.50;;
3149;SDS011;32503;47.748;8.960;2022-12-20T13:38:58;27.60;;;19.40;;
3149;SDS011;32503;47.748;8.960;2022-12-20T13:41:30;43.03;;;20.40;;
3149;SDS011;32503;47.748;8.960;2022-12-20T13:47:01;36.57;;;19.23;;
3149;SDS011;32503;47.748;8.960;2022-12-20T13:49:41;23.70;;;17.00;;
3149;SDS011;32503;47.748;8.960;2022-12-20T13:52:18;35.43;;;18.23;;
3149;SDS011;32503;47.748;8.960;2022-12-20T13:54:54;33.53;;;19.40;;
3149;SDS011;32503;47.748;8.960;2022-12-20T13:57:28;34.80;;;19.20;;
3149;SDS011;32503;47.748;8.960;2022-12-20T13:59:59;37.20;;;21.80;;
3149;SDS011;32503;47.748;8.960;2022-12-20T14:02:32;38.13;;;20.73;;
3149;SDS011;32503;47.748;8.960;2022-12-20T14:05:12;32.73;;;20.77;;
3149;SDS011;32503;47.748;8.960;2022-12-20T14:07:44;33.80;;;20.33;;
3149;SDS011;32503;47.748;8.960;2022-12-20T14:10:17;37.20;;;20.50;;
3149;SDS011;32503;47.748;8.960;2022-12-20T14:12:48;34.07;;;20.67;;
3149;SDS011;32503;47.748;8.960;2022-12-20T14:15:20;36.03;;;21.93;;
3149;SDS011;32503;47.748;8.960;2022-12-20T14:17:49;48.40;;;25.53;;
3149;SDS011;32503;47.748;8.960;2022-12-20T14:20:19;55.37;;;26.00;;
3149;SDS011;32503;47.748;8.960;2022-12-20T14:22:52;39.60;;;23.30;;
3149;SDS011;32503;47.748;8.960;2022-12-20T14:25:28;40.83;;;21.20;;
3149;SDS011;32503;47.748;8.960;2022-12-20T14:28:01;35.70;;;19.37;;
3149;SDS011;32503;47.748;8.960;2022-12-20T14:30:30;39.23;;;21.13;;
3149;SDS011;32503;47.748;8.960;2022-12-20T14:33:12;40.77;;;21.17;;
3149;SDS011;32503;47.748;8.960;2022-12-20T14:36:07;34.70;;;20.37;;
3149;SDS011;32503;47.748;8.960;2022-12-20T14:38:44;44.50;;;21.97;;
3149;SDS011;32503;47.748;8.960;2022-12-20T14:41:28;32.03;;;19.03;;
3149;SDS011;32503;47.748;8.960;2022-12-20T14:44:01;36.70;;;20.10;;
3149;SDS011;32503;47.748;8.960;2022-12-20T14:46:39;36.93;;;19.67;;
3149;SDS011;32503;47.748;8.960;2022-12-20T14:49:16;30.67;;;18.77;;
3149;SDS011;32503;47.748;8.960;2022-12-20T14:51:50;33.80;;;18.73;;
3149;SDS011;32503;47.748;8.960;2022-12-20T14:54:30;36.20;;;20.30;;
3149;SDS011;32503;47.748;8.960;2022-12-20T14:56:58;40.40;;;22.23;;
3149;SDS011;32503;47.748;8.960;2022-12-20T14:59:26;34.20;;;22.27;;
3149;SDS011;32503;47.748;8.960;2022-12-20T15:01:55;35.93;;;18.87;;
3149;SDS011;32503;47.748;8.960;2022-12-20T15:04:24;35.53;;;20.60;;
3149;SDS011;32503;47.748;8.960;2022-12-20T15:06:59;44.63;;;21.57;;
3149;SDS011;32503;47.748;8.960;2022-12-20T15:09:28;41.67;;;18.93;;
3149;SDS011;32503;47.748;8.960;2022-12-20T15:11:55;38.67;;;19.20;;
3149;SDS011;32503;47.748;8.960;2022-12-20T15:14:30;41.70;;;21.80;;
3149;SDS011;32503;47.748;8.960;2022-12-20T15:17:01;44.07;;;21.70;;
3149;SDS011;32503;47.748;8.960;2022-12-20T15:19:29;38.80;;;22.23;;
3149;SDS011;32503;47.748;8.960;2022-12-20T15:21:57;40.10;;;23.00;;
3149;SDS011;32503;47.748;8.960;2022-12-20T15:24:27;45.53;;;24.67;;
3149;SDS011;32503;47.748;8.960;2022-12-20T15:26:54;38.00;;;22.40;;
3149;SDS011;32503;47.748;8.960;2022-12-20T15:29:22;46.77;;;26.57;;
3149;SDS011;32503;47.748;8.960;2022-12-20T15:31:51;40.10;;;24.50;;